sensor_id;sensor_type;location;lat;lon;timestamp;temperature;humidity
2767;DHT22;1391;46.74287300;11.63683300;2023-08-30T00:01:18;16.00;20.80
2767;DHT22;1391;46.74287300;11.63683300;2023-08-30T00:03:45;15.80;22.30
2767;DHT22;1391;46.74287300;11.63683300;2023-08-30T00:06:12;15.70;24.70
2767;DHT22;1391;46.74287300;11.63683300;2023-08-30T00:08:41;15.20;29.10
2767;DHT22;1391;46.74287300;11.63683300;2023-08-30T00:11:08;15.10;28.80
2767;DHT22;1391;46.74287300;11.63683300;2023-08-30T00:13:35;15.10;30.50
2767;DHT22;1391;46.74287300;11.63683300;2023-08-30T00:16:02;15.40;33.00
2767;DHT22;1391;46.74287300;11.63683300;2023-08-30T00:18:31;15.00;32.70
2767;DHT22;1391;46.74287300;11.63683300;2023-08-30T00:20:59;15.00;35.70
2767;DHT22;1391;46.74287300;11.63683300;2023-08-30T00:23:26;15.00;43.50
2767;DHT22;1391;46.74287300;11.63683300;2023-08-30T00:25:53;14.20;48.90
2767;DHT22;1391;46.74287300;11.63683300;2023-08-30T00:28:20;14.10;54.90
2767;DHT22;1391;46.74287300;11.63683300;2023-08-30T00:30:52;14.20;53.70
2767;DHT22;1391;46.74287300;11.63683300;2023-08-30T00:33:21;14.30;51.90
2767;DHT22;1391;46.74287300;11.63683300;2023-08-30T00:35:56;14.20;43.60
2767;DHT22;1391;46.74287300;11.63683300;2023-08-30T00:38:25;14.50;42.50
2767;DHT22;1391;46.74287300;11.63683300;2023-08-30T00:40:53;14.20;54.90
2767;DHT22;1391;46.74287300;11.63683300;2023-08-30T00:43:21;14.10;55.20
2767;DHT22;1391;46.74287300;11.63683300;2023-08-30T00:45:49;14.10;64.60
2767;DHT22;1391;46.74287300;11.63683300;2023-08-30T00:48:17;13.80;59.40
2767;DHT22;1391;46.74287300;11.63683300;2023-08-30T00:50:46;14.10;60.90
2767;DHT22;1391;46.74287300;11.63683300;2023-08-30T00:53:15;14.20;53.70
2767;DHT22;1391;46.74287300;11.63683300;2023-08-30T00:55:43;14.20;59.40
2767;DHT22;1391;46.74287300;11.63683300;2023-08-30T00:58:11;14.20;63.60
2767;DHT22;1391;46.74287300;11.63683300;2023-08-30T01:00:39;13.70;69.10
2767;DHT22;1391;46.74287300;11.63683300;2023-08-30T01:03:06;14.50;69.90
2767;DHT22;1391;46.74287300;11.63683300;2023-08-30T01:05:34;14.10;66.50
2767;DHT22;1391;46.74287300;11.63683300;2023-08-30T01:08:01;14.20;61.40
2767;DHT22;1391;46.74287300;11.63683300;2023-08-30T01:10:41;13.90;70.20
2767;DHT22;1391;46.74287300;11.63683300;2023-08-30T01:13:18;13.90;76.50
2767;DHT22;1391;46.74287300;11.63683300;2023-08-30T01:15:47;13.80;78.20
2767;DHT22;1391;46.74287300;11.63683300;2023-08-30T01:18:18;13.70;63.00
2767;DHT22;1391;46.74287300;11.63683300;2023-08-30T01:20:47;14.00;58.60
2767;DHT22;1391;46.74287300;11.63683300;2023-08-30T01:23:23;13.80;69.00
2767;DHT22;1391;46.74287300;11.63683300;2023-08-30T01:26:01;14.00;75.10
2767;DHT22;1391;46.74287300;11.63683300;2023-08-30T01:28:33;13.30;72.10
2767;DHT22;1391;46.74287300;11.63683300;2023-08-30T01:31:03;13.70;67.40
2767;DHT22;1391;46.74287300;11.63683300;2023-08-30T01:33:31;13.30;74.50
2767;DHT22;1391;46.74287300;11.63683300;2023-08-30T01:36:00;14.10;78.70
2767;DHT22;1391;46.74287300;11.63683300;2023-08-30T01:38:29;13.30;66.80
2767;DHT22;1391;46.74287300;11.63683300;2023-08-30T01:40:59;13.40;72.10
2767;DHT22;1391;46.74287300;11.63683300;2023-08-30T01:43:28;13.30;79.00
2767;DHT22;1391;46.74287300;11.63683300;2023-08-30T01:45:57;13.20;79.00
2767;DHT22;1391;46.74287300;11.63683300;2023-08-30T01:48:26;13.20;73.50
2767;DHT22;1391;46.74287300;11.63683300;2023-08-30T01:50:55;13.60;72.20
2767;DHT22;1391;46.74287300;11.63683300;2023-08-30T01:53:26;13.70;84.10
2767;DHT22;1391;46.74287300;11.63683300;2023-08-30T01:55:53;13.20;81.40
2767;DHT22;1391;46.74287300;11.63683300;2023-08-30T01:58:21;13.60;82.50
2767;DHT22;1391;46.74287300;11.63683300;2023-08-30T02:00:48;13.30;89.80
2767;DHT22;1391;46.74287300;11.63683300;2023-08-30T02:03:16;13.40;87.30
2767;DHT22;1391;46.74287300;11.63683300;2023-08-30T02:05:52;13.30;85.50
2767;DHT22;1391;46.74287300;11.63683300;2023-08-30T02:08:37;13.20;82.40
2767;DHT22;1391;46.74287300;11.63683300;2023-08-30T02:11:13;13.50;79.80
2767;DHT22;1391;46.74287300;11.63683300;2023-08-30T02:13:44;13.10;85.90
2767;DHT22;1391;46.74287300;11.63683300;2023-08-30T02:16:13;13.50;85.80
2767;DHT22;1391;46.74287300;11.63683300;2023-08-30T02:18:42;13.40;89.00
2767;DHT22;1391;46.74287300;11.63683300;2023-08-30T02:21:10;13.60;90.10
2767;DHT22;1391;46.74287300;11.63683300;2023-08-30T02:23:37;13.60;84.60
2767;DHT22;1391;46.74287300;11.63683300;2023-08-30T02:26:04;13.60;82.40
2767;DHT22;1391;46.74287300;11.63683300;2023-08-30T02:28:32;12.90;85.10
2767;DHT22;1391;46.74287300;11.63683300;2023-08-30T02:30:59;13.40;86.00
2767;DHT22;1391;46.74287300;11.63683300;2023-08-30T02:33:26;13.40;87.00
2767;DHT22;1391;46.74287300;11.63683300;2023-08-30T02:35:56;13.70;85.90
2767;DHT22;1391;46.74287300;11.63683300;2023-08-30T02:38:23;13.60;86.40
2767;DHT22;1391;46.74287300;11.63683300;2023-08-30T02:40:50;13.60;85.30
2767;DHT22;1391;46.74287300;11.63683300;2023-08-30T02:43:17;13.70;86.90
2767;DHT22;1391;46.74287300;11.63683300;2023-08-30T02:45:44;13.40;86.50
2767;DHT22;1391;46.74287300;11.63683300;2023-08-30T02:48:11;12.90;79.10
2767;DHT22;1391;46.74287300;11.63683300;2023-08-30T02:50:38;13.50;84.10
2767;DHT22;1391;46.74287300;11.63683300;2023-08-30T02:53:07;13.40;83.20
2767;DHT22;1391;46.74287300;11.63683300;2023-08-30T02:55:34;13.70;86.40
2767;DHT22;1391;46.74287300;11.63683300;2023-08-30T02:58:02;13.40;90.40
2767;DHT22;1391;46.74287300;11.63683300;2023-08-30T03:00:29;13.00;87.50
2767;DHT22;1391;46.74287300;11.63683300;2023-08-30T03:02:56;13.10;87.70
2767;DHT22;1391;46.74287300;11.63683300;2023-08-30T03:05:23;13.30;85.50
2767;DHT22;1391;46.74287300;11.63683300;2023-08-30T03:07:52;13.10;92.40
2767;DHT22;1391;46.74287300;11.63683300;2023-08-30T03:10:21;13.20;88.30
2767;DHT22;1391;46.74287300;11.63683300;2023-08-30T03:12:49;13.00;83.30
2767;DHT22;1391;46.74287300;11.63683300;2023-08-30T03:15:16;13.30;78.80
2767;DHT22;1391;46.74287300;11.63683300;2023-08-30T03:17:44;12.90;74.20
2767;DHT22;1391;46.74287300;11.63683300;2023-08-30T03:20:11;13.60;74.30
2767;DHT22;1391;46.74287300;11.63683300;2023-08-30T03:22:38;13.40;80.80
2767;DHT22;1391;46.74287300;11.63683300;2023-08-30T03:25:06;13.20;86.10
2767;DHT22;1391;46.74287300;11.63683300;2023-08-30T03:27:36;13.10;83.40
2767;DHT22;1391;46.74287300;11.63683300;2023-08-30T03:30:04;12.90;82.00
2767;DHT22;1391;46.74287300;11.63683300;2023-08-30T03:32:32;13.60;74.70
2767;DHT22;1391;46.74287300;11.63683300;2023-08-30T03:34:59;13.70;70.20
2767;DHT22;1391;46.74287300;11.63683300;2023-08-30T03:37:29;13.60;68.10
2767;DHT22;1391;46.74287300;11.63683300;2023-08-30T03:39:56;13.30;66.90
2767;DHT22;1391;46.74287300;11.63683300;2023-08-30T03:42:24;13.60;75.20
2767;DHT22;1391;46.74287300;11.63683300;2023-08-30T03:44:53;13.70;67.40
2767;DHT22;1391;46.74287300;11.63683300;2023-08-30T03:47:20;13.70;68.30
2767;DHT22;1391;46.74287300;11.63683300;2023-08-30T03:49:47;13.50;74.90
2767;DHT22;1391;46.74287300;11.63683300;2023-08-30T03:52:14;13.60;82.00
2767;DHT22;1391;46.74287300;11.63683300;2023-08-30T03:54:42;13.70;83.90
2767;DHT22;1391;46.74287300;11.63683300;2023-08-30T03:57:09;13.30;79.60
2767;DHT22;1391;46.74287300;11.63683300;2023-08-30T03:59:36;13.70;82.60
2767;DHT22;1391;46.74287300;11.63683300;2023-08-30T04:02:04;13.50;76.60
2767;DHT22;1391;46.74287300;11.63683300;2023-08-30T04:04:31;13.30;74.50
2767;DHT22;1391;46.74287300;11.63683300;2023-08-30T04:06:59;13.10;83.50
2767;DHT22;1391;46.74287300;11.63683300;2023-08-30T04:09:26;13.10;90.20
2767;DHT22;1391;46.74287300;11.63683300;2023-08-30T04:11:53;13.20;90.90
2767;DHT22;1391;46.74287300;11.63683300;2023-08-30T04:14:20;13.10;88.10
2767;DHT22;1391;46.74287300;11.63683300;2023-08-30T04:16:47;13.10;90.60
2767;DHT22;1391;46.74287300;11.63683300;2023-08-30T04:19:16;13.10;90.50
2767;DHT22;1391;46.74287300;11.63683300;2023-08-30T04:21:43;13.40;92.60
2767;DHT22;1391;46.74287300;11.63683300;2023-08-30T04:24:10;13.00;93.90
2767;DHT22;1391;46.74287300;11.63683300;2023-08-30T04:26:37;12.80;96.40
2767;DHT22;1391;46.74287300;11.63683300;2023-08-30T04:29:04;12.70;95.50
2767;DHT22;1391;46.74287300;11.63683300;2023-08-30T04:31:30;12.60;97.70
2767;DHT22;1391;46.74287300;11.63683300;2023-08-30T04:33:58;13.00;99.90
2767;DHT22;1391;46.74287300;11.63683300;2023-08-30T04:36:26;12.60;99.90
2767;DHT22;1391;46.74287300;11.63683300;2023-08-30T04:38:54;12.40;99.90
2767;DHT22;1391;46.74287300;11.63683300;2023-08-30T04:41:21;12.70;99.90
2767;DHT22;1391;46.74287300;11.63683300;2023-08-30T04:43:48;12.50;99.30
2767;DHT22;1391;46.74287300;11.63683300;2023-08-30T04:46:15;12.90;99.90
2767;DHT22;1391;46.74287300;11.63683300;2023-08-30T04:48:42;12.30;99.90
2767;DHT22;1391;46.74287300;11.63683300;2023-08-30T04:51:09;12.70;99.90
2767;DHT22;1391;46.74287300;11.63683300;2023-08-30T04:53:38;13.00;97.10
2767;DHT22;1391;46.74287300;11.63683300;2023-08-30T04:56:13;12.30;92.20
2767;DHT22;1391;46.74287300;11.63683300;2023-08-30T04:58:43;12.80;90.70
2767;DHT22;1391;46.74287300;11.63683300;2023-08-30T05:01:10;12.90;94.60
2767;DHT22;1391;46.74287300;11.63683300;2023-08-30T05:03:39;12.70;93.70
2767;DHT22;1391;46.74287300;11.63683300;2023-08-30T05:06:06;12.60;93.10
2767;DHT22;1391;46.74287300;11.63683300;2023-08-30T05:08:33;12.20;90.20
2767;DHT22;1391;46.74287300;11.63683300;2023-08-30T05:11:02;12.60;90.70
2767;DHT22;1391;46.74287300;11.63683300;2023-08-30T05:13:29;12.60;94.60
2767;DHT22;1391;46.74287300;11.63683300;2023-08-30T05:15:56;12.20;98.50
2767;DHT22;1391;46.74287300;11.63683300;2023-08-30T05:18:23;12.20;99.90
2767;DHT22;1391;46.74287300;11.63683300;2023-08-30T05:20:51;12.10;99.90
2767;DHT22;1391;46.74287300;11.63683300;2023-08-30T05:23:18;12.10;99.90
2767;DHT22;1391;46.74287300;11.63683300;2023-08-30T05:25:45;12.70;97.10
2767;DHT22;1391;46.74287300;11.63683300;2023-08-30T05:28:14;12.70;97.90
2767;DHT22;1391;46.74287300;11.63683300;2023-08-30T05:30:42;12.80;99.90
2767;DHT22;1391;46.74287300;11.63683300;2023-08-30T05:33:10;12.70;99.90
2767;DHT22;1391;46.74287300;11.63683300;2023-08-30T05:35:37;12.60;99.90
2767;DHT22;1391;46.74287300;11.63683300;2023-08-30T05:38:04;12.90;99.90
2767;DHT22;1391;46.74287300;11.63683300;2023-08-30T05:40:31;12.50;99.90
2767;DHT22;1391;46.74287300;11.63683300;2023-08-30T05:42:58;12.60;99.20
2767;DHT22;1391;46.74287300;11.63683300;2023-08-30T05:45:27;12.60;97.80
2767;DHT22;1391;46.74287300;11.63683300;2023-08-30T05:47:54;13.30;99.20
2767;DHT22;1391;46.74287300;11.63683300;2023-08-30T05:50:22;13.30;99.90
2767;DHT22;1391;46.74287300;11.63683300;2023-08-30T05:52:49;13.10;96.20
2767;DHT22;1391;46.74287300;11.63683300;2023-08-30T05:55:17;13.40;96.80
2767;DHT22;1391;46.74287300;11.63683300;2023-08-30T05:57:44;13.50;93.20
2767;DHT22;1391;46.74287300;11.63683300;2023-08-30T06:00:12;13.40;96.40
2767;DHT22;1391;46.74287300;11.63683300;2023-08-30T06:02:41;13.50;94.10
2767;DHT22;1391;46.74287300;11.63683300;2023-08-30T06:05:09;13.10;92.90
2767;DHT22;1391;46.74287300;11.63683300;2023-08-30T06:07:36;13.80;93.00
2767;DHT22;1391;46.74287300;11.63683300;2023-08-30T06:10:04;13.50;99.00
2767;DHT22;1391;46.74287300;11.63683300;2023-08-30T06:12:32;13.50;93.50
2767;DHT22;1391;46.74287300;11.63683300;2023-08-30T06:14:59;13.60;89.80
2767;DHT22;1391;46.74287300;11.63683300;2023-08-30T06:17:26;13.60;90.70
2767;DHT22;1391;46.74287300;11.63683300;2023-08-30T06:19:55;14.30;96.20
2767;DHT22;1391;46.74287300;11.63683300;2023-08-30T06:22:22;13.60;92.20
2767;DHT22;1391;46.74287300;11.63683300;2023-08-30T06:24:49;13.90;91.60
2767;DHT22;1391;46.74287300;11.63683300;2023-08-30T06:27:16;14.40;96.60
2767;DHT22;1391;46.74287300;11.63683300;2023-08-30T06:29:44;14.20;97.20
2767;DHT22;1391;46.74287300;11.63683300;2023-08-30T06:32:11;14.20;85.30
2767;DHT22;1391;46.74287300;11.63683300;2023-08-30T06:34:38;14.20;85.70
2767;DHT22;1391;46.74287300;11.63683300;2023-08-30T06:37:06;14.60;73.60
2767;DHT22;1391;46.74287300;11.63683300;2023-08-30T06:39:34;14.50;68.20
2767;DHT22;1391;46.74287300;11.63683300;2023-08-30T06:42:02;14.60;65.30
2767;DHT22;1391;46.74287300;11.63683300;2023-08-30T06:44:30;15.00;66.10
2767;DHT22;1391;46.74287300;11.63683300;2023-08-30T06:46:57;15.10;68.40
2767;DHT22;1391;46.74287300;11.63683300;2023-08-30T06:49:24;14.80;79.40
2767;DHT22;1391;46.74287300;11.63683300;2023-08-30T06:51:52;15.50;67.10
2767;DHT22;1391;46.74287300;11.63683300;2023-08-30T06:54:20;15.60;65.20
2767;DHT22;1391;46.74287300;11.63683300;2023-08-30T06:56:57;15.50;59.80
2767;DHT22;1391;46.74287300;11.63683300;2023-08-30T06:59:25;15.60;54.30
2767;DHT22;1391;46.74287300;11.63683300;2023-08-30T07:01:52;15.50;55.70
2767;DHT22;1391;46.74287300;11.63683300;2023-08-30T07:04:20;15.40;60.20
2767;DHT22;1391;46.74287300;11.63683300;2023-08-30T07:06:47;15.70;58.50
2767;DHT22;1391;46.74287300;11.63683300;2023-08-30T07:09:14;15.50;59.60
2767;DHT22;1391;46.74287300;11.63683300;2023-08-30T07:11:44;15.40;53.20
2767;DHT22;1391;46.74287300;11.63683300;2023-08-30T07:14:11;15.30;57.00
2767;DHT22;1391;46.74287300;11.63683300;2023-08-30T07:16:40;15.70;55.70
2767;DHT22;1391;46.74287300;11.63683300;2023-08-30T07:19:07;15.40;56.60
2767;DHT22;1391;46.74287300;11.63683300;2023-08-30T07:21:35;15.50;54.70
2767;DHT22;1391;46.74287300;11.63683300;2023-08-30T07:24:05;15.50;54.00
2767;DHT22;1391;46.74287300;11.63683300;2023-08-30T07:26:33;15.80;53.00
2767;DHT22;1391;46.74287300;11.63683300;2023-08-30T07:29:03;15.50;53.40
2767;DHT22;1391;46.74287300;11.63683300;2023-08-30T07:31:31;15.40;54.90
2767;DHT22;1391;46.74287300;11.63683300;2023-08-30T07:33:58;16.00;58.00
2767;DHT22;1391;46.74287300;11.63683300;2023-08-30T07:36:26;16.00;59.10
2767;DHT22;1391;46.74287300;11.63683300;2023-08-30T07:38:54;15.50;55.20
2767;DHT22;1391;46.74287300;11.63683300;2023-08-30T07:41:21;15.60;55.20
2767;DHT22;1391;46.74287300;11.63683300;2023-08-30T07:43:48;15.60;54.60
2767;DHT22;1391;46.74287300;11.63683300;2023-08-30T07:46:17;15.40;50.60
2767;DHT22;1391;46.74287300;11.63683300;2023-08-30T07:48:44;16.00;51.50
2767;DHT22;1391;46.74287300;11.63683300;2023-08-30T07:51:12;16.00;50.50
2767;DHT22;1391;46.74287300;11.63683300;2023-08-30T07:53:39;15.80;50.90
2767;DHT22;1391;46.74287300;11.63683300;2023-08-30T07:56:06;15.90;51.80
2767;DHT22;1391;46.74287300;11.63683300;2023-08-30T07:58:34;16.10;52.60
2767;DHT22;1391;46.74287300;11.63683300;2023-08-30T08:01:01;16.00;50.90
2767;DHT22;1391;46.74287300;11.63683300;2023-08-30T08:03:30;16.10;46.50
2767;DHT22;1391;46.74287300;11.63683300;2023-08-30T08:05:58;16.10;53.50
2767;DHT22;1391;46.74287300;11.63683300;2023-08-30T08:08:26;16.20;54.10
2767;DHT22;1391;46.74287300;11.63683300;2023-08-30T08:10:53;16.00;54.60
2767;DHT22;1391;46.74287300;11.63683300;2023-08-30T08:13:20;16.00;59.10
2767;DHT22;1391;46.74287300;11.63683300;2023-08-30T08:15:48;16.10;52.20
2767;DHT22;1391;46.74287300;11.63683300;2023-08-30T08:18:15;16.40;55.90
2767;DHT22;1391;46.74287300;11.63683300;2023-08-30T08:20:43;16.50;56.10
2767;DHT22;1391;46.74287300;11.63683300;2023-08-30T08:23:11;16.40;59.80
2767;DHT22;1391;46.74287300;11.63683300;2023-08-30T08:25:38;16.50;62.90
2767;DHT22;1391;46.74287300;11.63683300;2023-08-30T08:28:05;16.50;54.30
2767;DHT22;1391;46.74287300;11.63683300;2023-08-30T08:30:32;16.60;58.20
2767;DHT22;1391;46.74287300;11.63683300;2023-08-30T08:33:01;16.60;64.20
2767;DHT22;1391;46.74287300;11.63683300;2023-08-30T08:35:28;16.60;59.30
2767;DHT22;1391;46.74287300;11.63683300;2023-08-30T08:37:57;16.60;49.00
2767;DHT22;1391;46.74287300;11.63683300;2023-08-30T08:40:40;16.60;44.80
2767;DHT22;1391;46.74287300;11.63683300;2023-08-30T08:43:18;16.60;51.90
2767;DHT22;1391;46.74287300;11.63683300;2023-08-30T08:45:52;16.60;49.40
2767;DHT22;1391;46.74287300;11.63683300;2023-08-30T08:48:28;16.80;46.90
2767;DHT22;1391;46.74287300;11.63683300;2023-08-30T08:50:57;17.20;46.70
2767;DHT22;1391;46.74287300;11.63683300;2023-08-30T08:53:27;17.20;49.20
2767;DHT22;1391;46.74287300;11.63683300;2023-08-30T08:55:58;17.30;39.70
2767;DHT22;1391;46.74287300;11.63683300;2023-08-30T08:58:37;17.20;47.50
2767;DHT22;1391;46.74287300;11.63683300;2023-08-30T09:01:12;17.00;42.00
2767;DHT22;1391;46.74287300;11.63683300;2023-08-30T09:03:43;17.30;39.00
2767;DHT22;1391;46.74287300;11.63683300;2023-08-30T09:06:11;17.20;39.90
2767;DHT22;1391;46.74287300;11.63683300;2023-08-30T09:08:45;17.20;40.70
2767;DHT22;1391;46.74287300;11.63683300;2023-08-30T09:11:12;17.20;41.10
2767;DHT22;1391;46.74287300;11.63683300;2023-08-30T09:13:41;17.20;52.10
2767;DHT22;1391;46.74287300;11.63683300;2023-08-30T09:16:13;17.30;34.00
2767;DHT22;1391;46.74287300;11.63683300;2023-08-30T09:18:41;17.30;38.40
2767;DHT22;1391;46.74287300;11.63683300;2023-08-30T09:21:11;17.70;43.40
2767;DHT22;1391;46.74287300;11.63683300;2023-08-30T09:23:43;17.80;32.70
2767;DHT22;1391;46.74287300;11.63683300;2023-08-30T09:26:13;17.80;40.10
2767;DHT22;1391;46.74287300;11.63683300;2023-08-30T09:28:48;17.80;42.60
2767;DHT22;1391;46.74287300;11.63683300;2023-08-30T09:31:18;18.20;34.50
2767;DHT22;1391;46.74287300;11.63683300;2023-08-30T09:33:46;18.20;29.30
2767;DHT22;1391;46.74287300;11.63683300;2023-08-30T09:36:14;18.20;26.70
2767;DHT22;1391;46.74287300;11.63683300;2023-08-30T09:38:49;18.50;27.80
2767;DHT22;1391;46.74287300;11.63683300;2023-08-30T09:41:17;18.50;28.30
2767;DHT22;1391;46.74287300;11.63683300;2023-08-30T09:43:44;18.30;23.90
2767;DHT22;1391;46.74287300;11.63683300;2023-08-30T09:46:13;18.50;27.80
2767;DHT22;1391;46.74287300;11.63683300;2023-08-30T09:48:40;19.10;22.30
2767;DHT22;1391;46.74287300;11.63683300;2023-08-30T09:51:08;19.30;25.60
2767;DHT22;1391;46.74287300;11.63683300;2023-08-30T09:53:42;18.90;19.70
2767;DHT22;1391;46.74287300;11.63683300;2023-08-30T09:56:13;19.40;27.00
2767;DHT22;1391;46.74287300;11.63683300;2023-08-30T09:58:41;19.90;23.90
2767;DHT22;1391;46.74287300;11.63683300;2023-08-30T10:01:09;19.90;27.70
2767;DHT22;1391;46.74287300;11.63683300;2023-08-30T10:03:37;20.00;30.30
2767;DHT22;1391;46.74287300;11.63683300;2023-08-30T10:06:06;19.80;21.20
2767;DHT22;1391;46.74287300;11.63683300;2023-08-30T10:08:34;19.80;29.90
2767;DHT22;1391;46.74287300;11.63683300;2023-08-30T10:11:02;19.80;21.00
2767;DHT22;1391;46.74287300;11.63683300;2023-08-30T10:13:34;19.90;20.90
2767;DHT22;1391;46.74287300;11.63683300;2023-08-30T10:16:02;19.80;26.30
2767;DHT22;1391;46.74287300;11.63683300;2023-08-30T10:18:32;19.00;26.20
2767;DHT22;1391;46.74287300;11.63683300;2023-08-30T10:21:04;19.90;31.80
2767;DHT22;1391;46.74287300;11.63683300;2023-08-30T10:23:35;20.10;33.60
2767;DHT22;1391;46.74287300;11.63683300;2023-08-30T10:26:05;19.60;20.20
2767;DHT22;1391;46.74287300;11.63683300;2023-08-30T10:28:36;19.90;18.70
2767;DHT22;1391;46.74287300;11.63683300;2023-08-30T10:31:05;19.90;22.70
2767;DHT22;1391;46.74287300;11.63683300;2023-08-30T10:33:46;20.50;18.60
2767;DHT22;1391;46.74287300;11.63683300;2023-08-30T10:36:20;19.80;19.30
2767;DHT22;1391;46.74287300;11.63683300;2023-08-30T10:38:49;20.50;20.20
2767;DHT22;1391;46.74287300;11.63683300;2023-08-30T10:41:20;20.60;21.70
2767;DHT22;1391;46.74287300;11.63683300;2023-08-30T10:43:55;20.60;19.90
2767;DHT22;1391;46.74287300;11.63683300;2023-08-30T10:46:30;20.60;27.90
2767;DHT22;1391;46.74287300;11.63683300;2023-08-30T10:49:08;21.30;29.20
2767;DHT22;1391;46.74287300;11.63683300;2023-08-30T10:51:37;21.10;16.70
2767;DHT22;1391;46.74287300;11.63683300;2023-08-30T10:54:12;21.10;23.70
2767;DHT22;1391;46.74287300;11.63683300;2023-08-30T10:56:48;20.80;32.70
2767;DHT22;1391;46.74287300;11.63683300;2023-08-30T10:59:23;21.40;37.60
2767;DHT22;1391;46.74287300;11.63683300;2023-08-30T11:01:51;21.30;26.60
2767;DHT22;1391;46.74287300;11.63683300;2023-08-30T11:04:20;21.30;22.80
2767;DHT22;1391;46.74287300;11.63683300;2023-08-30T11:06:49;21.10;14.60
2767;DHT22;1391;46.74287300;11.63683300;2023-08-30T11:09:19;21.20;26.90
2767;DHT22;1391;46.74287300;11.63683300;2023-08-30T11:11:48;21.20;16.20
2767;DHT22;1391;46.74287300;11.63683300;2023-08-30T11:14:18;21.20;17.90
2767;DHT22;1391;46.74287300;11.63683300;2023-08-30T11:16:46;21.20;16.30
2767;DHT22;1391;46.74287300;11.63683300;2023-08-30T11:19:14;21.20;16.90
2767;DHT22;1391;46.74287300;11.63683300;2023-08-30T11:21:44;21.20;23.70
2767;DHT22;1391;46.74287300;11.63683300;2023-08-30T11:24:11;21.30;27.40
2767;DHT22;1391;46.74287300;11.63683300;2023-08-30T11:26:38;21.80;16.80
2767;DHT22;1391;46.74287300;11.63683300;2023-08-30T11:29:07;22.00;18.00
2767;DHT22;1391;46.74287300;11.63683300;2023-08-30T11:31:35;21.90;19.90
2767;DHT22;1391;46.74287300;11.63683300;2023-08-30T11:34:04;21.90;21.90
2767;DHT22;1391;46.74287300;11.63683300;2023-08-30T11:36:35;21.30;14.40
2767;DHT22;1391;46.74287300;11.63683300;2023-08-30T11:39:04;21.30;18.70
2767;DHT22;1391;46.74287300;11.63683300;2023-08-30T11:41:32;21.30;22.90
2767;DHT22;1391;46.74287300;11.63683300;2023-08-30T11:43:59;21.30;13.90
2767;DHT22;1391;46.74287300;11.63683300;2023-08-30T11:46:26;21.30;16.30
2767;DHT22;1391;46.74287300;11.63683300;2023-08-30T11:48:54;21.80;12.60
2767;DHT22;1391;46.74287300;11.63683300;2023-08-30T11:51:23;21.20;14.30
2767;DHT22;1391;46.74287300;11.63683300;2023-08-30T11:53:51;21.30;15.90
2767;DHT22;1391;46.74287300;11.63683300;2023-08-30T11:56:19;22.00;12.90
2767;DHT22;1391;46.74287300;11.63683300;2023-08-30T11:58:47;21.80;13.20
2767;DHT22;1391;46.74287300;11.63683300;2023-08-30T12:01:14;21.40;11.30
2767;DHT22;1391;46.74287300;11.63683300;2023-08-30T12:03:42;21.30;15.00
2767;DHT22;1391;46.74287300;11.63683300;2023-08-30T12:06:12;21.30;11.60
2767;DHT22;1391;46.74287300;11.63683300;2023-08-30T12:08:41;21.30;13.80
2767;DHT22;1391;46.74287300;11.63683300;2023-08-30T12:11:17;21.20;12.20
2767;DHT22;1391;46.74287300;11.63683300;2023-08-30T12:13:45;21.20;12.80
2767;DHT22;1391;46.74287300;11.63683300;2023-08-30T12:16:17;21.20;14.10
2767;DHT22;1391;46.74287300;11.63683300;2023-08-30T12:18:46;21.00;15.30
2767;DHT22;1391;46.74287300;11.63683300;2023-08-30T12:21:13;21.60;16.30
2767;DHT22;1391;46.74287300;11.63683300;2023-08-30T12:23:43;21.20;13.10
2767;DHT22;1391;46.74287300;11.63683300;2023-08-30T12:26:10;21.20;12.50
2767;DHT22;1391;46.74287300;11.63683300;2023-08-30T12:28:39;20.90;14.40
2767;DHT22;1391;46.74287300;11.63683300;2023-08-30T12:31:07;21.00;13.30
2767;DHT22;1391;46.74287300;11.63683300;2023-08-30T12:33:35;21.00;21.30
2767;DHT22;1391;46.74287300;11.63683300;2023-08-30T12:36:02;20.50;16.90
2767;DHT22;1391;46.74287300;11.63683300;2023-08-30T12:38:30;20.30;13.80
2767;DHT22;1391;46.74287300;11.63683300;2023-08-30T12:41:02;20.50;11.40
2767;DHT22;1391;46.74287300;11.63683300;2023-08-30T12:43:35;20.60;17.30
2767;DHT22;1391;46.74287300;11.63683300;2023-08-30T12:46:02;21.00;12.00
2767;DHT22;1391;46.74287300;11.63683300;2023-08-30T12:48:33;20.50;15.00
2767;DHT22;1391;46.74287300;11.63683300;2023-08-30T12:51:00;20.50;15.40
2767;DHT22;1391;46.74287300;11.63683300;2023-08-30T12:53:29;20.30;14.00
2767;DHT22;1391;46.74287300;11.63683300;2023-08-30T12:55:56;20.50;15.70
2767;DHT22;1391;46.74287300;11.63683300;2023-08-30T12:58:24;20.20;12.50
2767;DHT22;1391;46.74287300;11.63683300;2023-08-30T13:00:51;20.30;14.70
2767;DHT22;1391;46.74287300;11.63683300;2023-08-30T13:03:19;20.30;14.80
2767;DHT22;1391;46.74287300;11.63683300;2023-08-30T13:05:46;20.30;16.60
2767;DHT22;1391;46.74287300;11.63683300;2023-08-30T13:08:13;20.40;17.70
2767;DHT22;1391;46.74287300;11.63683300;2023-08-30T13:10:40;20.30;19.00
2767;DHT22;1391;46.74287300;11.63683300;2023-08-30T13:13:09;20.40;17.90
2767;DHT22;1391;46.74287300;11.63683300;2023-08-30T13:15:37;20.40;25.80
2767;DHT22;1391;46.74287300;11.63683300;2023-08-30T13:18:05;20.40;29.00
2767;DHT22;1391;46.74287300;11.63683300;2023-08-30T13:20:32;20.30;29.10
2767;DHT22;1391;46.74287300;11.63683300;2023-08-30T13:22:59;20.40;25.50
2767;DHT22;1391;46.74287300;11.63683300;2023-08-30T13:25:26;19.60;23.40
2767;DHT22;1391;46.74287300;11.63683300;2023-08-30T13:27:53;20.40;32.10
2767;DHT22;1391;46.74287300;11.63683300;2023-08-30T13:30:21;20.10;25.20
2767;DHT22;1391;46.74287300;11.63683300;2023-08-30T13:32:49;20.30;29.20
2767;DHT22;1391;46.74287300;11.63683300;2023-08-30T13:35:16;20.40;34.60
2767;DHT22;1391;46.74287300;11.63683300;2023-08-30T13:37:44;20.30;30.20
2767;DHT22;1391;46.74287300;11.63683300;2023-08-30T13:40:11;20.00;38.10
2767;DHT22;1391;46.74287300;11.63683300;2023-08-30T13:42:38;19.90;37.10